sensor_id;sensor_type;location;lat;lon;timestamp;P1;durP1;ratioP1;P2;durP2;ratioP2
9481;SDS011;4779;48.062;11.672;2023-04-24T00:01:22;1.63;;;0.70;;
9481;SDS011;4779;48.062;11.672;2023-04-24T00:03:49;1.20;;;0.90;;
9481;SDS011;4779;48.062;11.672;2023-04-24T00:06:16;1.00;;;0.80;;
9481;SDS011;4779;48.062;11.672;2023-04-24T00:08:43;1.67;;;1.10;;
9481;SDS011;4779;48.062;11.672;2023-04-24T00:11:10;1.63;;;0.90;;
9481;SDS011;4779;48.062;11.672;2023-04-24T00:13:39;1.10;;;1.00;;
9481;SDS011;4779;48.062;11.672;2023-04-24T00:16:05;0.77;;;0.77;;
9481;SDS011;4779;48.062;11.672;2023-04-24T00:18:32;2.00;;;1.03;;
9481;SDS011;4779;48.062;11.672;2023-04-24T00:20:59;1.33;;;0.90;;
9481;SDS011;4779;48.062;11.672;2023-04-24T00:23:26;0.70;;;0.70;;
9481;SDS011;4779;48.062;11.672;2023-04-24T00:25:53;0.80;;;0.80;;
9481;SDS011;4779;48.062;11.672;2023-04-24T00:28:20;1.30;;;0.80;;
9481;SDS011;4779;48.062;11.672;2023-04-24T00:30:48;0.60;;;0.60;;
9481;SDS011;4779;48.062;11.672;2023-04-24T00:33:15;0.70;;;0.60;;
9481;SDS011;4779;48.062;11.672;2023-04-24T00:35:42;1.30;;;0.70;;
9481;SDS011;4779;48.062;11.672;2023-04-24T00:38:09;0.93;;;0.73;;
9481;SDS011;4779;48.062;11.672;2023-04-24T00:40:36;0.60;;;0.60;;
9481;SDS011;4779;48.062;11.672;2023-04-24T00:43:03;0.93;;;0.80;;
9481;SDS011;4779;48.062;11.672;2023-04-24T00:45:30;1.43;;;0.80;;
9481;SDS011;4779;48.062;11.672;2023-04-24T00:47:58;0.70;;;0.67;;
9481;SDS011;4779;48.062;11.672;2023-04-24T00:50:26;0.67;;;0.67;;
9481;SDS011;4779;48.062;11.672;2023-04-24T00:52:54;3.10;;;0.60;;
9481;SDS011;4779;48.062;11.672;2023-04-24T00:55:21;1.80;;;0.60;;
9481;SDS011;4779;48.062;11.672;2023-04-24T00:57:48;0.43;;;0.43;;
9481;SDS011;4779;48.062;11.672;2023-04-24T01:00:15;0.70;;;0.70;;
9481;SDS011;4779;48.062;11.672;2023-04-24T01:02:44;0.60;;;0.60;;
9481;SDS011;4779;48.062;11.672;2023-04-24T01:05:13;0.77;;;0.60;;
9481;SDS011;4779;48.062;11.672;2023-04-24T01:07:43;1.27;;;0.70;;
9481;SDS011;4779;48.062;11.672;2023-04-24T01:10:12;0.50;;;0.50;;
9481;SDS011;4779;48.062;11.672;2023-04-24T01:12:40;0.80;;;0.80;;
9481;SDS011;4779;48.062;11.672;2023-04-24T01:15:08;0.37;;;0.37;;
9481;SDS011;4779;48.062;11.672;2023-04-24T01:17:35;0.57;;;0.50;;
9481;SDS011;4779;48.062;11.672;2023-04-24T01:20:03;0.50;;;0.50;;
9481;SDS011;4779;48.062;11.672;2023-04-24T01:22:33;0.40;;;0.40;;
9481;SDS011;4779;48.062;11.672;2023-04-24T01:25:00;0.40;;;0.40;;
9481;SDS011;4779;48.062;11.672;2023-04-24T01:27:28;0.90;;;0.47;;
9481;SDS011;4779;48.062;11.672;2023-04-24T01:29:55;0.40;;;0.40;;
9481;SDS011;4779;48.062;11.672;2023-04-24T02:00:52;0.30;;;0.30;;
9481;SDS011;4779;48.062;11.672;2023-04-24T02:03:21;0.83;;;0.60;;
9481;SDS011;4779;48.062;11.672;2023-04-24T02:05:48;0.40;;;0.40;;
9481;SDS011;4779;48.062;11.672;2023-04-24T02:08:15;0.60;;;0.30;;
9481;SDS011;4779;48.062;11.672;2023-04-24T02:10:42;0.63;;;0.40;;
9481;SDS011;4779;48.062;11.672;2023-04-24T02:13:09;0.87;;;0.47;;
9481;SDS011;4779;48.062;11.672;2023-04-24T02:15:36;0.53;;;0.50;;
9481;SDS011;4779;48.062;11.672;2023-04-24T02:20:38;0.30;;;0.30;;
9481;SDS011;4779;48.062;11.672;2023-04-24T02:23:05;0.30;;;0.30;;
9481;SDS011;4779;48.062;11.672;2023-04-24T02:25:33;0.73;;;0.30;;
9481;SDS011;4779;48.062;11.672;2023-04-24T02:27:59;0.40;;;0.40;;
9481;SDS011;4779;48.062;11.672;2023-04-24T02:30:27;0.60;;;0.40;;
9481;SDS011;4779;48.062;11.672;2023-04-24T02:32:54;0.60;;;0.50;;
9481;SDS011;4779;48.062;11.672;2023-04-24T02:35:21;0.60;;;0.60;;
9481;SDS011;4779;48.062;11.672;2023-04-24T02:37:49;0.90;;;0.40;;
9481;SDS011;4779;48.062;11.672;2023-04-24T02:40:16;1.00;;;0.40;;
9481;SDS011;4779;48.062;11.672;2023-04-24T02:42:43;0.77;;;0.30;;
9481;SDS011;4779;48.062;11.672;2023-04-24T02:45:10;0.60;;;0.40;;
9481;SDS011;4779;48.062;11.672;2023-04-24T02:47:37;0.30;;;0.30;;
9481;SDS011;4779;48.062;11.672;2023-04-24T02:50:05;0.40;;;0.40;;
9481;SDS011;4779;48.062;11.672;2023-04-24T02:52:33;1.80;;;0.40;;
9481;SDS011;4779;48.062;11.672;2023-04-24T02:55:01;0.63;;;0.60;;
9481;SDS011;4779;48.062;11.672;2023-04-24T02:57:28;0.70;;;0.50;;
9481;SDS011;4779;48.062;11.672;2023-04-24T02:59:55;0.90;;;0.50;;
9481;SDS011;4779;48.062;11.672;2023-04-24T03:02:22;0.50;;;0.43;;
9481;SDS011;4779;48.062;11.672;2023-04-24T03:04:49;0.83;;;0.40;;
9481;SDS011;4779;48.062;11.672;2023-04-24T03:07:16;0.67;;;0.57;;
9481;SDS011;4779;48.062;11.672;2023-04-24T03:09:45;0.60;;;0.60;;
9481;SDS011;4779;48.062;11.672;2023-04-24T03:12:14;0.70;;;0.53;;
9481;SDS011;4779;48.062;11.672;2023-04-24T03:14:42;1.10;;;0.47;;
9481;SDS011;4779;48.062;11.672;2023-04-24T03:17:09;0.50;;;0.40;;
9481;SDS011;4779;48.062;11.672;2023-04-24T03:19:36;0.40;;;0.40;;
9481;SDS011;4779;48.062;11.672;2023-04-24T03:22:03;0.40;;;0.40;;
9481;SDS011;4779;48.062;11.672;2023-04-24T03:24:30;0.50;;;0.50;;
9481;SDS011;4779;48.062;11.672;2023-04-24T03:26:57;0.60;;;0.50;;
9481;SDS011;4779;48.062;11.672;2023-04-24T03:29:26;0.40;;;0.40;;
9481;SDS011;4779;48.062;11.672;2023-04-24T03:31:53;0.40;;;0.40;;
9481;SDS011;4779;48.062;11.672;2023-04-24T03:34:20;1.53;;;0.50;;
9481;SDS011;4779;48.062;11.672;2023-04-24T03:36:47;0.50;;;0.50;;
9481;SDS011;4779;48.062;11.672;2023-04-24T03:39:14;0.60;;;0.60;;
9481;SDS011;4779;48.062;11.672;2023-04-24T03:41:40;0.60;;;0.50;;
9481;SDS011;4779;48.062;11.672;2023-04-24T03:44:07;0.40;;;0.40;;
9481;SDS011;4779;48.062;11.672;2023-04-24T03:46:36;0.60;;;0.60;;
9481;SDS011;4779;48.062;11.672;2023-04-24T03:49:03;0.73;;;0.60;;
9481;SDS011;4779;48.062;11.672;2023-04-24T03:51:29;0.77;;;0.60;;
9481;SDS011;4779;48.062;11.672;2023-04-24T03:53:57;1.90;;;0.67;;
9481;SDS011;4779;48.062;11.672;2023-04-24T03:56:24;0.87;;;0.50;;
9481;SDS011;4779;48.062;11.672;2023-04-24T03:58:50;0.47;;;0.40;;
9481;SDS011;4779;48.062;11.672;2023-04-24T04:01:17;0.50;;;0.50;;
9481;SDS011;4779;48.062;11.672;2023-04-24T04:03:47;0.60;;;0.50;;
9481;SDS011;4779;48.062;11.672;2023-04-24T04:06:14;1.13;;;0.63;;
9481;SDS011;4779;48.062;11.672;2023-04-24T04:08:41;1.17;;;0.60;;
9481;SDS011;4779;48.062;11.672;2023-04-24T04:11:07;0.80;;;0.57;;
9481;SDS011;4779;48.062;11.672;2023-04-24T04:13:34;0.73;;;0.60;;
9481;SDS011;4779;48.062;11.672;2023-04-24T04:16:01;0.60;;;0.60;;
9481;SDS011;4779;48.062;11.672;2023-04-24T04:18:28;0.83;;;0.60;;
9481;SDS011;4779;48.062;11.672;2023-04-24T04:20:56;1.13;;;0.60;;
9481;SDS011;4779;48.062;11.672;2023-04-24T04:23:23;0.50;;;0.50;;
9481;SDS011;4779;48.062;11.672;2023-04-24T04:25:50;1.30;;;0.70;;
9481;SDS011;4779;48.062;11.672;2023-04-24T04:28:17;0.90;;;0.90;;
9481;SDS011;4779;48.062;11.672;2023-04-24T04:30:46;1.60;;;0.80;;
9481;SDS011;4779;48.062;11.672;2023-04-24T04:33:13;0.70;;;0.70;;
9481;SDS011;4779;48.062;11.672;2023-04-24T04:35:40;1.53;;;0.70;;
9481;SDS011;4779;48.062;11.672;2023-04-24T04:38:08;0.50;;;0.50;;
9481;SDS011;4779;48.062;11.672;2023-04-24T04:40:36;0.50;;;0.50;;
9481;SDS011;4779;48.062;11.672;2023-04-24T04:43:02;1.43;;;0.60;;
9481;SDS011;4779;48.062;11.672;2023-04-24T04:45:29;1.30;;;0.60;;
9481;SDS011;4779;48.062;11.672;2023-04-24T04:47:57;0.83;;;0.50;;
9481;SDS011;4779;48.062;11.672;2023-04-24T04:50:25;0.50;;;0.50;;
9481;SDS011;4779;48.062;11.672;2023-04-24T04:52:52;0.77;;;0.60;;
9481;SDS011;4779;48.062;11.672;2023-04-24T04:55:21;0.67;;;0.67;;
9481;SDS011;4779;48.062;11.672;2023-04-24T04:57:48;0.70;;;0.60;;
9481;SDS011;4779;48.062;11.672;2023-04-24T05:00:15;2.00;;;0.70;;
9481;SDS011;4779;48.062;11.672;2023-04-24T05:02:42;0.60;;;0.60;;
9481;SDS011;4779;48.062;11.672;2023-04-24T05:05:09;1.37;;;0.50;;
9481;SDS011;4779;48.062;11.672;2023-04-24T05:07:36;0.50;;;0.50;;
9481;SDS011;4779;48.062;11.672;2023-04-24T05:10:03;1.67;;;0.53;;
9481;SDS011;4779;48.062;11.672;2023-04-24T05:12:32;0.93;;;0.70;;
9481;SDS011;4779;48.062;11.672;2023-04-24T05:14:59;0.77;;;0.40;;
9481;SDS011;4779;48.062;11.672;2023-04-24T05:17:26;1.90;;;0.60;;
9481;SDS011;4779;48.062;11.672;2023-04-24T05:19:53;1.30;;;0.50;;
9481;SDS011;4779;48.062;11.672;2023-04-24T05:22:20;1.30;;;0.50;;
9481;SDS011;4779;48.062;11.672;2023-04-24T05:24:47;0.40;;;0.40;;
9481;SDS011;4779;48.062;11.672;2023-04-24T05:27:14;0.87;;;0.60;;
9481;SDS011;4779;48.062;11.672;2023-04-24T05:29:42;0.87;;;0.70;;
9481;SDS011;4779;48.062;11.672;2023-04-24T05:32:10;0.53;;;0.50;;
9481;SDS011;4779;48.062;11.672;2023-04-24T05:34:37;0.97;;;0.50;;
9481;SDS011;4779;48.062;11.672;2023-04-24T05:37:03;0.60;;;0.60;;
9481;SDS011;4779;48.062;11.672;2023-04-24T05:39:33;0.70;;;0.70;;
9481;SDS011;4779;48.062;11.672;2023-04-24T05:42:00;1.13;;;0.60;;
9481;SDS011;4779;48.062;11.672;2023-04-24T05:44:28;0.60;;;0.60;;
9481;SDS011;4779;48.062;11.672;2023-04-24T05:46:56;0.73;;;0.70;;
9481;SDS011;4779;48.062;11.672;2023-04-24T05:49:23;0.63;;;0.60;;
9481;SDS011;4779;48.062;11.672;2023-04-24T05:51:50;0.93;;;0.60;;
9481;SDS011;4779;48.062;11.672;2023-04-24T05:54:17;0.77;;;0.60;;
9481;SDS011;4779;48.062;11.672;2023-04-24T05:56:44;1.00;;;0.50;;
9481;SDS011;4779;48.062;11.672;2023-04-24T05:59:12;1.07;;;0.50;;
9481;SDS011;4779;48.062;11.672;2023-04-24T06:01:45;0.83;;;0.53;;
9481;SDS011;4779;48.062;11.672;2023-04-24T06:04:13;0.50;;;0.50;;
9481;SDS011;4779;48.062;11.672;2023-04-24T06:06:40;1.40;;;0.50;;
9481;SDS011;4779;48.062;11.672;2023-04-24T06:09:08;1.00;;;0.40;;
9481;SDS011;4779;48.062;11.672;2023-04-24T06:11:37;1.07;;;0.40;;
9481;SDS011;4779;48.062;11.672;2023-04-24T06:14:04;0.57;;;0.50;;
9481;SDS011;4779;48.062;11.672;2023-04-24T06:16:30;0.57;;;0.57;;
9481;SDS011;4779;48.062;11.672;2023-04-24T06:18:57;0.53;;;0.50;;
9481;SDS011;4779;48.062;11.672;2023-04-24T06:21:26;0.40;;;0.40;;
9481;SDS011;4779;48.062;11.672;2023-04-24T06:23:53;0.53;;;0.50;;
9481;SDS011;4779;48.062;11.672;2023-04-24T06:26:21;0.30;;;0.30;;
9481;SDS011;4779;48.062;11.672;2023-04-24T06:28:49;0.47;;;0.30;;
9481;SDS011;4779;48.062;11.672;2023-04-24T06:31:16;0.50;;;0.50;;
9481;SDS011;4779;48.062;11.672;2023-04-24T06:33:43;0.87;;;0.63;;
9481;SDS011;4779;48.062;11.672;2023-04-24T06:36:10;0.77;;;0.40;;
9481;SDS011;4779;48.062;11.672;2023-04-24T06:38:39;0.57;;;0.57;;
9481;SDS011;4779;48.062;11.672;2023-04-24T06:41:06;0.33;;;0.33;;
9481;SDS011;4779;48.062;11.672;2023-04-24T06:43:33;0.83;;;0.50;;
9481;SDS011;4779;48.062;11.672;2023-04-24T06:46:00;0.70;;;0.70;;
9481;SDS011;4779;48.062;11.672;2023-04-24T06:48:28;1.23;;;0.60;;
9481;SDS011;4779;48.062;11.672;2023-04-24T06:50:55;0.40;;;0.40;;
9481;SDS011;4779;48.062;11.672;2023-04-24T06:53:22;0.40;;;0.40;;
9481;SDS011;4779;48.062;11.672;2023-04-24T06:55:50;0.37;;;0.30;;
9481;SDS011;4779;48.062;11.672;2023-04-24T06:58:17;0.30;;;0.30;;
9481;SDS011;4779;48.062;11.672;2023-04-24T07:00:44;0.87;;;0.60;;
9481;SDS011;4779;48.062;11.672;2023-04-24T07:03:11;0.40;;;0.40;;
9481;SDS011;4779;48.062;11.672;2023-04-24T07:05:38;0.57;;;0.40;;
9481;SDS011;4779;48.062;11.672;2023-04-24T07:08:05;0.60;;;0.60;;
9481;SDS011;4779;48.062;11.672;2023-04-24T07:10:33;0.83;;;0.83;;
9481;SDS011;4779;48.062;11.672;2023-04-24T07:13:02;1.03;;;0.90;;
9481;SDS011;4779;48.062;11.672;2023-04-24T07:15:29;0.73;;;0.73;;
9481;SDS011;4779;48.062;11.672;2023-04-24T07:17:57;1.30;;;0.60;;
9481;SDS011;4779;48.062;11.672;2023-04-24T07:20:24;1.23;;;0.60;;
9481;SDS011;4779;48.062;11.672;2023-04-24T07:22:51;0.70;;;0.40;;
9481;SDS011;4779;48.062;11.672;2023-04-24T07:25:19;0.30;;;0.30;;
9481;SDS011;4779;48.062;11.672;2023-04-24T07:27:46;1.20;;;0.30;;
9481;SDS011;4779;48.062;11.672;2023-04-24T07:30:15;1.30;;;0.40;;
9481;SDS011;4779;48.062;11.672;2023-04-24T07:32:42;0.93;;;0.50;;
9481;SDS011;4779;48.062;11.672;2023-04-24T07:35:09;0.33;;;0.33;;
9481;SDS011;4779;48.062;11.672;2023-04-24T07:37:36;0.40;;;0.40;;
9481;SDS011;4779;48.062;11.672;2023-04-24T07:40:03;0.40;;;0.40;;
9481;SDS011;4779;48.062;11.672;2023-04-24T07:42:31;0.57;;;0.40;;
9481;SDS011;4779;48.062;11.672;2023-04-24T07:44:59;0.83;;;0.60;;
9481;SDS011;4779;48.062;11.672;2023-04-24T07:47:27;1.33;;;1.00;;
9481;SDS011;4779;48.062;11.672;2023-04-24T07:49:54;1.83;;;0.80;;
9481;SDS011;4779;48.062;11.672;2023-04-24T07:52:21;1.10;;;1.00;;
9481;SDS011;4779;48.062;11.672;2023-04-24T07:54:49;0.60;;;0.53;;
9481;SDS011;4779;48.062;11.672;2023-04-24T07:57:17;0.30;;;0.30;;
9481;SDS011;4779;48.062;11.672;2023-04-24T07:59:44;2.13;;;0.40;;
9481;SDS011;4779;48.062;11.672;2023-04-24T08:02:11;0.73;;;0.50;;
9481;SDS011;4779;48.062;11.672;2023-04-24T08:04:41;0.50;;;0.50;;
9481;SDS011;4779;48.062;11.672;2023-04-24T08:07:08;0.40;;;0.40;;
9481;SDS011;4779;48.062;11.672;2023-04-24T08:09:34;1.57;;;0.60;;
9481;SDS011;4779;48.062;11.672;2023-04-24T08:12:01;1.17;;;0.60;;
9481;SDS011;4779;48.062;11.672;2023-04-24T08:14:28;0.30;;;0.30;;
9481;SDS011;4779;48.062;11.672;2023-04-24T08:16:55;1.37;;;0.57;;
9481;SDS011;4779;48.062;11.672;2023-04-24T08:19:24;0.80;;;0.53;;
9481;SDS011;4779;48.062;11.672;2023-04-24T08:21:52;0.50;;;0.50;;
9481;SDS011;4779;48.062;11.672;2023-04-24T08:24:19;0.40;;;0.40;;
9481;SDS011;4779;48.062;11.672;2023-04-24T08:26:46;1.07;;;0.50;;
9481;SDS011;4779;48.062;11.672;2023-04-24T08:29:15;0.40;;;0.40;;
9481;SDS011;4779;48.062;11.672;2023-04-24T08:31:42;1.10;;;0.40;;
9481;SDS011;4779;48.062;11.672;2023-04-24T08:34:09;0.30;;;0.30;;
9481;SDS011;4779;48.062;11.672;2023-04-24T08:36:36;0.40;;;0.40;;
9481;SDS011;4779;48.062;11.672;2023-04-24T08:39:07;0.77;;;0.53;;
9481;SDS011;4779;48.062;11.672;2023-04-24T08:41:34;0.30;;;0.30;;
9481;SDS011;4779;48.062;11.672;2023-04-24T08:44:01;0.50;;;0.40;;
9481;SDS011;4779;48.062;11.672;2023-04-24T08:46:29;1.60;;;0.40;;
9481;SDS011;4779;48.062;11.672;2023-04-24T08:48:56;0.40;;;0.40;;
9481;SDS011;4779;48.062;11.672;2023-04-24T08:51:24;0.60;;;0.50;;
9481;SDS011;4779;48.062;11.672;2023-04-24T08:53:53;1.50;;;0.80;;
9481;SDS011;4779;48.062;11.672;2023-04-24T08:56:22;0.70;;;0.70;;
9481;SDS011;4779;48.062;11.672;2023-04-24T08:58:51;1.47;;;0.70;;
9481;SDS011;4779;48.062;11.672;2023-04-24T09:01:18;1.27;;;0.80;;
9481;SDS011;4779;48.062;11.672;2023-04-24T09:03:46;0.70;;;0.70;;
9481;SDS011;4779;48.062;11.672;2023-04-24T09:06:15;1.10;;;0.87;;
9481;SDS011;4779;48.062;11.672;2023-04-24T09:08:43;2.43;;;0.80;;
9481;SDS011;4779;48.062;11.672;2023-04-24T09:11:11;0.80;;;0.80;;
9481;SDS011;4779;48.062;11.672;2023-04-24T09:13:40;1.07;;;0.90;;
9481;SDS011;4779;48.062;11.672;2023-04-24T09:16:07;1.33;;;0.80;;
9481;SDS011;4779;48.062;11.672;2023-04-24T09:18:34;1.40;;;0.80;;
9481;SDS011;4779;48.062;11.672;2023-04-24T09:21:02;1.90;;;0.77;;
9481;SDS011;4779;48.062;11.672;2023-04-24T09:23:30;0.87;;;0.80;;
9481;SDS011;4779;48.062;11.672;2023-04-24T09:25:58;1.17;;;0.80;;
9481;SDS011;4779;48.062;11.672;2023-04-24T09:28:26;1.40;;;0.60;;
9481;SDS011;4779;48.062;11.672;2023-04-24T09:31:03;1.50;;;0.90;;
9481;SDS011;4779;48.062;11.672;2023-04-24T09:33:31;1.23;;;0.60;;
9481;SDS011;4779;48.062;11.672;2023-04-24T09:35:59;1.03;;;0.80;;
9481;SDS011;4779;48.062;11.672;2023-04-24T09:38:30;0.73;;;0.73;;
9481;SDS011;4779;48.062;11.672;2023-04-24T09:40:59;1.07;;;0.70;;
9481;SDS011;4779;48.062;11.672;2023-04-24T09:43:27;1.50;;;0.80;;
9481;SDS011;4779;48.062;11.672;2023-04-24T09:45:55;0.80;;;0.80;;
9481;SDS011;4779;48.062;11.672;2023-04-24T09:48:31;0.97;;;0.77;;
9481;SDS011;4779;48.062;11.672;2023-04-24T09:50:58;1.05;;;0.90;;
9481;SDS011;4779;48.062;11.672;2023-04-24T09:53:26;1.30;;;0.90;;
9481;SDS011;4779;48.062;11.672;2023-04-24T09:55:54;1.00;;;0.90;;
9481;SDS011;4779;48.062;11.672;2023-04-24T09:58:24;0.67;;;0.67;;
9481;SDS011;4779;48.062;11.672;2023-04-24T10:00:53;1.60;;;1.03;;
9481;SDS011;4779;48.062;11.672;2023-04-24T10:03:23;1.90;;;1.10;;
9481;SDS011;4779;48.062;11.672;2023-04-24T10:05:52;1.07;;;0.80;;
9481;SDS011;4779;48.062;11.672;2023-04-24T10:08:20;1.80;;;1.03;;
9481;SDS011;4779;48.062;11.672;2023-04-24T10:10:48;1.23;;;0.90;;
9481;SDS011;4779;48.062;11.672;2023-04-24T10:13:14;2.00;;;1.10;;
9481;SDS011;4779;48.062;11.672;2023-04-24T10:15:43;1.13;;;1.00;;
9481;SDS011;4779;48.062;11.672;2023-04-24T10:18:19;0.77;;;0.77;;
9481;SDS011;4779;48.062;11.672;2023-04-24T10:20:47;1.13;;;1.00;;
9481;SDS011;4779;48.062;11.672;2023-04-24T10:23:16;1.30;;;1.00;;
9481;SDS011;4779;48.062;11.672;2023-04-24T10:25:44;1.47;;;0.90;;
9481;SDS011;4779;48.062;11.672;2023-04-24T10:28:11;1.03;;;0.93;;
9481;SDS011;4779;48.062;11.672;2023-04-24T10:30:39;1.43;;;1.10;;
9481;SDS011;4779;48.062;11.672;2023-04-24T10:33:09;1.53;;;1.00;;
9481;SDS011;4779;48.062;11.672;2023-04-24T10:35:38;1.33;;;1.10;;
9481;SDS011;4779;48.062;11.672;2023-04-24T10:38:08;1.37;;;1.00;;
9481;SDS011;4779;48.062;11.672;2023-04-24T10:40:39;2.07;;;1.10;;
9481;SDS011;4779;48.062;11.672;2023-04-24T10:43:06;1.07;;;0.93;;
9481;SDS011;4779;48.062;11.672;2023-04-24T10:45:36;1.27;;;1.03;;
9481;SDS011;4779;48.062;11.672;2023-04-24T10:48:04;2.63;;;1.00;;
9481;SDS011;4779;48.062;11.672;2023-04-24T10:50:42;1.73;;;1.10;;
9481;SDS011;4779;48.062;11.672;2023-04-24T10:53:15;0.80;;;0.80;;
9481;SDS011;4779;48.062;11.672;2023-04-24T10:55:45;1.77;;;1.03;;
9481;SDS011;4779;48.062;11.672;2023-04-24T10:58:13;1.50;;;1.10;;
9481;SDS011;4779;48.062;11.672;2023-04-24T11:00:42;1.83;;;1.00;;
9481;SDS011;4779;48.062;11.672;2023-04-24T11:03:22;1.07;;;0.70;;
9481;SDS011;4779;48.062;11.672;2023-04-24T11:05:51;0.90;;;0.70;;
9481;SDS011;4779;48.062;11.672;2023-04-24T11:08:21;1.50;;;0.80;;
9481;SDS011;4779;48.062;11.672;2023-04-24T11:10:55;0.80;;;0.80;;
9481;SDS011;4779;48.062;11.672;2023-04-24T11:13:31;0.60;;;0.60;;
9481;SDS011;4779;48.062;11.672;2023-04-24T11:16:38;0.40;;;0.40;;
9481;SDS011;4779;48.062;11.672;2023-04-24T11:19:10;0.40;;;0.40;;
9481;SDS011;4779;48.062;11.672;2023-04-24T11:21:46;0.70;;;0.70;;
9481;SDS011;4779;48.062;11.672;2023-04-24T11:24:23;0.50;;;0.50;;
9481;SDS011;4779;48.062;11.672;2023-04-24T11:26:53;0.77;;;0.77;;
9481;SDS011;4779;48.062;11.672;2023-04-24T11:29:21;0.70;;;0.70;;
9481;SDS011;4779;48.062;11.672;2023-04-24T11:31:49;0.60;;;0.60;;
9481;SDS011;4779;48.062;11.672;2023-04-24T11:34:16;0.60;;;0.60;;
9481;SDS011;4779;48.062;11.672;2023-04-24T11:36:44;0.93;;;0.60;;
9481;SDS011;4779;48.062;11.672;2023-04-24T11:39:13;0.87;;;0.63;;
9481;SDS011;4779;48.062;11.672;2023-04-24T11:41:40;6.23;;;0.80;;
9481;SDS011;4779;48.062;11.672;2023-04-24T11:44:08;1.23;;;0.80;;
9481;SDS011;4779;48.062;11.672;2023-04-24T11:46:36;1.00;;;0.90;;
9481;SDS011;4779;48.062;11.672;2023-04-24T11:49:05;0.97;;;0.90;;
9481;SDS011;4779;48.062;11.672;2023-04-24T11:51:32;1.00;;;0.93;;
9481;SDS011;4779;48.062;11.672;2023-04-24T11:54:00;2.53;;;1.00;;
9481;SDS011;4779;48.062;11.672;2023-04-24T11:56:27;2.42;;;1.08;;
9481;SDS011;4779;48.062;11.672;2023-04-24T11:58:55;1.30;;;0.75;;
9481;SDS011;4779;48.062;11.672;2023-04-24T12:01:23;3.92;;;1.50;;
9481;SDS011;4779;48.062;11.672;2023-04-24T12:03:50;1.88;;;1.13;;
9481;SDS011;4779;48.062;11.672;2023-04-24T12:06:25;0.80;;;0.80;;
9481;SDS011;4779;48.062;11.672;2023-04-24T12:08:52;1.47;;;1.17;;
9481;SDS011;4779;48.062;11.672;2023-04-24T12:11:20;1.03;;;1.03;;
9481;SDS011;4779;48.062;11.672;2023-04-24T12:13:47;1.03;;;1.00;;
9481;SDS011;4779;48.062;11.672;2023-04-24T12:16:14;3.13;;;1.20;;
9481;SDS011;4779;48.062;11.672;2023-04-24T12:18:42;1.20;;;1.17;;
9481;SDS011;4779;48.062;11.672;2023-04-24T12:21:17;1.30;;;1.10;;
9481;SDS011;4779;48.062;11.672;2023-04-24T12:23:45;1.37;;;1.27;;
9481;SDS011;4779;48.062;11.672;2023-04-24T12:26:12;2.30;;;1.60;;
9481;SDS011;4779;48.062;11.672;2023-04-24T12:28:45;2.83;;;1.20;;
9481;SDS011;4779;48.062;11.672;2023-04-24T12:31:13;2.20;;;1.40;;
9481;SDS011;4779;48.062;11.672;2023-04-24T12:33:40;1.93;;;1.40;;
9481;SDS011;4779;48.062;11.672;2023-04-24T12:36:10;2.00;;;1.50;;
9481;SDS011;4779;48.062;11.672;2023-04-24T12:38:38;2.43;;;1.33;;
9481;SDS011;4779;48.062;11.672;2023-04-24T12:41:09;1.70;;;1.50;;
9481;SDS011;4779;48.062;11.672;2023-04-24T12:43:38;1.90;;;1.70;;
9481;SDS011;4779;48.062;11.672;2023-04-24T12:46:05;1.80;;;1.70;;
9481;SDS011;4779;48.062;11.672;2023-04-24T12:48:31;3.33;;;1.67;;
9481;SDS011;4779;48.062;11.672;2023-04-24T12:50:58;2.67;;;1.80;;
9481;SDS011;4779;48.062;11.672;2023-04-24T12:53:28;1.77;;;1.60;;
9481;SDS011;4779;48.062;11.672;2023-04-24T12:55:56;3.47;;;2.00;;
9481;SDS011;4779;48.062;11.672;2023-04-24T12:58:23;2.63;;;1.63;;
9481;SDS011;4779;48.062;11.672;2023-04-24T13:00:50;3.57;;;2.07;;
9481;SDS011;4779;48.062;11.672;2023-04-24T13:03:17;1.67;;;1.50;;
9481;SDS011;4779;48.062;11.672;2023-04-24T13:05:44;2.30;;;2.10;;
9481;SDS011;4779;48.062;11.672;2023-04-24T13:08:12;2.30;;;1.90;;
9481;SDS011;4779;48.062;11.672;2023-04-24T13:10:40;4.43;;;2.27;;
9481;SDS011;4779;48.062;11.672;2023-04-24T13:13:07;2.53;;;2.00;;
9481;SDS011;4779;48.062;11.672;2023-04-24T13:15:34;2.43;;;2.23;;
9481;SDS011;4779;48.062;11.672;2023-04-24T13:18:01;3.17;;;2.10;;
9481;SDS011;4779;48.062;11.672;2023-04-24T13:20:28;2.23;;;2.03;;
9481;SDS011;4779;48.062;11.672;2023-04-24T13:22:55;3.63;;;2.37;;
9481;SDS011;4779;48.062;11.672;2023-04-24T13:25:22;3.13;;;2.17;;
9481;SDS011;4779;48.062;11.672;2023-04-24T13:27:51;2.23;;;2.03;;
9481;SDS011;4779;48.062;11.672;2023-04-24T13:30:18;1.80;;;1.70;;
9481;SDS011;4779;48.062;11.672;2023-04-24T13:32:45;2.17;;;1.87;;
9481;SDS011;4779;48.062;11.672;2023-04-24T13:35:12;2.27;;;1.80;;
9481;SDS011;4779;48.062;11.672;2023-04-24T13:37:39;1.90;;;1.60;;
9481;SDS011;4779;48.062;11.672;2023-04-24T13:40:06;1.80;;;1.60;;
9481;SDS011;4779;48.062;11.672;2023-04-24T13:42:34;2.40;;;1.77;;
9481;SDS011;4779;48.062;11.672;2023-04-24T13:45:03;2.33;;;1.80;;
9481;SDS011;4779;48.062;11.672;2023-04-24T13:47:30;1.80;;;1.70;;
9481;SDS011;4779;48.062;11.672;2023-04-24T13:49:57;2.60;;;1.90;;
9481;SDS011;4779;48.062;11.672;2023-04-24T13:52:24;1.97;;;1.67;;
9481;SDS011;4779;48.062;11.672;2023-04-24T13:54:51;2.00;;;1.80;;
9481;SDS011;4779;48.062;11.672;2023-04-24T13:57:18;1.90;;;1.70;;
9481;SDS011;4779;48.062;11.672;2023-04-24T13:59:45;1.63;;;1.53;;
9481;SDS011;4779;48.062;11.672;2023-04-24T14:02:13;2.13;;;1.60;;
9481;SDS011;4779;48.062;11.672;2023-04-24T14:04:40;2.00;;;1.50;;
9481;SDS011;4779;48.062;11.672;2023-04-24T14:07:07;1.90;;;1.53;;
9481;SDS011;4779;48.062;11.672;2023-04-24T14:09:34;1.97;;;1.60;;
9481;SDS011;4779;48.062;11.672;2023-04-24T14:12:01;2.90;;;1.60;;
9481;SDS011;4779;48.062;11.672;2023-04-24T14:14:28;1.73;;;1.40;;
9481;SDS011;4779;48.062;11.672;2023-04-24T14:16:56;1.47;;;1.37;;
9481;SDS011;4779;48.062;11.672;2023-04-24T14:19:24;1.60;;;1.50;;
9481;SDS011;4779;48.062;11.672;2023-04-24T14:21:51;3.37;;;1.73;;
9481;SDS011;4779;48.062;11.672;2023-04-24T14:24:18;1.50;;;1.40;;
9481;SDS011;4779;48.062;11.672;2023-04-24T14:26:45;2.07;;;1.60;;
9481;SDS011;4779;48.062;11.672;2023-04-24T14:29:12;1.60;;;1.50;;
9481;SDS011;4779;48.062;11.672;2023-04-24T14:31:40;1.43;;;1.33;;
9481;SDS011;4779;48.062;11.672;2023-04-24T14:34:07;1.90;;;1.38;;
9481;SDS011;4779;48.062;11.672;2023-04-24T14:36:35;1.60;;;1.50;;
9481;SDS011;4779;48.062;11.672;2023-04-24T14:39:02;2.07;;;1.60;;
9481;SDS011;4779;48.062;11.672;2023-04-24T14:41:31;1.77;;;1.37;;
9481;SDS011;4779;48.062;11.672;2023-04-24T14:44:00;2.27;;;1.60;;
9481;SDS011;4779;48.062;11.672;2023-04-24T14:46:27;2.00;;;1.33;;
9481;SDS011;4779;48.062;11.672;2023-04-24T14:48:55;3.10;;;1.30;;
9481;SDS011;4779;48.062;11.672;2023-04-24T14:51:22;1.40;;;1.30;;
9481;SDS011;4779;48.062;11.672;2023-04-24T14:53:51;1.90;;;1.40;;
9481;SDS011;4779;48.062;11.672;2023-04-24T14:56:18;3.40;;;1.47;;
9481;SDS011;4779;48.062;11.672;2023-04-24T14:58:45;2.90;;;1.33;;
9481;SDS011;4779;48.062;11.672;2023-04-24T15:01:12;1.60;;;1.50;;
9481;SDS011;4779;48.062;11.672;2023-04-24T15:03:39;1.63;;;1.30;;
9481;SDS011;4779;48.062;11.672;2023-04-24T15:06:06;2.43;;;1.53;;
9481;SDS011;4779;48.062;11.672;2023-04-24T15:08:33;2.00;;;1.47;;
9481;SDS011;4779;48.062;11.672;2023-04-24T15:11:01;2.80;;;1.37;;
9481;SDS011;4779;48.062;11.672;2023-04-24T15:13:28;2.37;;;1.40;;
9481;SDS011;4779;48.062;11.672;2023-04-24T15:15:55;2.07;;;1.50;;
9481;SDS011;4779;48.062;11.672;2023-04-24T15:18:22;3.40;;;1.53;;
9481;SDS011;4779;48.062;11.672;2023-04-24T15:20:49;2.30;;;1.20;;
9481;SDS011;4779;48.062;11.672;2023-04-24T15:23:16;2.77;;;1.50;;
9481;SDS011;4779;48.062;11.672;2023-04-24T15:25:43;1.77;;;1.20;;
9481;SDS011;4779;48.062;11.672;2023-04-24T15:28:11;2.87;;;1.40;;
9481;SDS011;4779;48.062;11.672;2023-04-24T15:30:38;3.80;;;1.50;;
9481;SDS011;4779;48.062;11.672;2023-04-24T15:33:05;2.30;;;1.77;;
9481;SDS011;4779;48.062;11.672;2023-04-24T15:35:33;1.73;;;1.40;;